sensor_id;sensor_type;location;lat;lon;timestamp;temperature;humidity
59855;DHT22;45732;52.850;6.896;2023-04-03T00:01:30;3.90;99.90
59855;DHT22;45732;52.850;6.896;2023-04-03T00:03:56;3.90;99.90
59855;DHT22;45732;52.850;6.896;2023-04-03T00:06:23;3.90;99.90
59855;DHT22;45732;52.850;6.896;2023-04-03T00:08:49;4.00;99.90
59855;DHT22;45732;52.850;6.896;2023-04-03T00:11:15;3.90;99.90
59855;DHT22;45732;52.850;6.896;2023-04-03T00:13:41;3.80;99.90
59855;DHT22;45732;52.850;6.896;2023-04-03T00:16:08;3.90;99.90
59855;DHT22;45732;52.850;6.896;2023-04-03T00:18:34;3.80;99.90
59855;DHT22;45732;52.850;6.896;2023-04-03T00:21:00;3.80;99.90
59855;DHT22;45732;52.850;6.896;2023-04-03T00:23:26;3.80;99.90
59855;DHT22;45732;52.850;6.896;2023-04-03T00:25:52;3.80;99.90
59855;DHT22;45732;52.850;6.896;2023-04-03T00:28:18;3.80;99.90
59855;DHT22;45732;52.850;6.896;2023-04-03T00:30:44;3.80;99.90
59855;DHT22;45732;52.850;6.896;2023-04-03T00:33:13;3.70;99.90
59855;DHT22;45732;52.850;6.896;2023-04-03T00:35:39;3.70;99.90
59855;DHT22;45732;52.850;6.896;2023-04-03T00:38:06;3.70;99.90
59855;DHT22;45732;52.850;6.896;2023-04-03T00:40:37;3.70;99.90
59855;DHT22;45732;52.850;6.896;2023-04-03T00:43:14;3.70;99.90
59855;DHT22;45732;52.850;6.896;2023-04-03T00:45:45;3.70;99.90
59855;DHT22;45732;52.850;6.896;2023-04-03T00:48:18;3.70;99.90
59855;DHT22;45732;52.850;6.896;2023-04-03T00:50:45;3.60;99.90
59855;DHT22;45732;52.850;6.896;2023-04-03T00:53:16;3.60;99.90
59855;DHT22;45732;52.850;6.896;2023-04-03T00:55:43;3.60;99.90
59855;DHT22;45732;52.850;6.896;2023-04-03T00:58:10;3.60;99.90
59855;DHT22;45732;52.850;6.896;2023-04-03T01:00:39;3.60;99.90
59855;DHT22;45732;52.850;6.896;2023-04-03T01:03:05;3.60;99.90
59855;DHT22;45732;52.850;6.896;2023-04-03T01:05:31;3.60;99.90
59855;DHT22;45732;52.850;6.896;2023-04-03T01:07:58;3.60;99.90
59855;DHT22;45732;52.850;6.896;2023-04-03T01:10:24;3.50;99.90
59855;DHT22;45732;52.850;6.896;2023-04-03T01:12:51;3.50;99.90
59855;DHT22;45732;52.850;6.896;2023-04-03T01:15:23;3.60;99.90
59855;DHT22;45732;52.850;6.896;2023-04-03T01:17:51;3.50;99.90
59855;DHT22;45732;52.850;6.896;2023-04-03T01:20:41;3.60;99.90
59855;DHT22;45732;52.850;6.896;2023-04-03T01:25:56;3.40;99.90
59855;DHT22;45732;52.850;6.896;2023-04-03T01:28:25;3.40;99.90
59855;DHT22;45732;52.850;6.896;2023-04-03T01:33:55;3.50;99.90
59855;DHT22;45732;52.850;6.896;2023-04-03T01:36:27;3.50;99.90
59855;DHT22;45732;52.850;6.896;2023-04-03T01:38:54;3.50;99.90
59855;DHT22;45732;52.850;6.896;2023-04-03T01:41:21;3.40;99.90
59855;DHT22;45732;52.850;6.896;2023-04-03T01:43:48;3.40;99.90
59855;DHT22;45732;52.850;6.896;2023-04-03T01:46:18;3.40;99.90
59855;DHT22;45732;52.850;6.896;2023-04-03T01:48:44;3.40;99.90
59855;DHT22;45732;52.850;6.896;2023-04-03T01:51:10;3.40;99.90
59855;DHT22;45732;52.850;6.896;2023-04-03T01:53:36;3.30;99.90
59855;DHT22;45732;52.850;6.896;2023-04-03T01:56:01;3.20;99.90
59855;DHT22;45732;52.850;6.896;2023-04-03T01:58:27;3.10;99.90
59855;DHT22;45732;52.850;6.896;2023-04-03T02:00:53;3.10;99.90
59855;DHT22;45732;52.850;6.896;2023-04-03T02:03:19;3.10;99.90
59855;DHT22;45732;52.850;6.896;2023-04-03T02:05:46;3.00;99.90
59855;DHT22;45732;52.850;6.896;2023-04-03T02:08:12;3.00;99.90
59855;DHT22;45732;52.850;6.896;2023-04-03T02:10:38;2.90;99.90
59855;DHT22;45732;52.850;6.896;2023-04-03T02:13:04;3.00;99.90
59855;DHT22;45732;52.850;6.896;2023-04-03T02:15:30;2.90;99.90
59855;DHT22;45732;52.850;6.896;2023-04-03T02:17:56;2.90;99.90
59855;DHT22;45732;52.850;6.896;2023-04-03T02:20:22;2.90;99.90
59855;DHT22;45732;52.850;6.896;2023-04-03T02:22:47;2.90;99.90
59855;DHT22;45732;52.850;6.896;2023-04-03T02:25:13;2.80;99.90
59855;DHT22;45732;52.850;6.896;2023-04-03T02:27:39;2.70;99.90
59855;DHT22;45732;52.850;6.896;2023-04-03T02:30:06;2.70;99.90
59855;DHT22;45732;52.850;6.896;2023-04-03T02:32:32;2.60;99.90
59855;DHT22;45732;52.850;6.896;2023-04-03T02:34:58;2.60;99.90
59855;DHT22;45732;52.850;6.896;2023-04-03T02:37:24;2.60;99.90
59855;DHT22;45732;52.850;6.896;2023-04-03T02:39:50;2.50;99.90
59855;DHT22;45732;52.850;6.896;2023-04-03T02:42:15;2.40;99.90
59855;DHT22;45732;52.850;6.896;2023-04-03T02:44:41;2.30;99.90
59855;DHT22;45732;52.850;6.896;2023-04-03T02:47:07;2.30;99.90
59855;DHT22;45732;52.850;6.896;2023-04-03T02:49:32;2.30;99.90
59855;DHT22;45732;52.850;6.896;2023-04-03T02:51:58;2.30;99.90
59855;DHT22;45732;52.850;6.896;2023-04-03T02:54:24;2.20;99.90
59855;DHT22;45732;52.850;6.896;2023-04-03T02:56:53;2.20;99.90
59855;DHT22;45732;52.850;6.896;2023-04-03T02:59:19;2.30;99.90
59855;DHT22;45732;52.850;6.896;2023-04-03T03:01:45;2.40;99.90
59855;DHT22;45732;52.850;6.896;2023-04-03T03:04:11;2.40;99.90
59855;DHT22;45732;52.850;6.896;2023-04-03T03:06:36;2.40;99.90
59855;DHT22;45732;52.850;6.896;2023-04-03T03:09:02;2.50;99.90
59855;DHT22;45732;52.850;6.896;2023-04-03T03:11:29;2.40;99.90
59855;DHT22;45732;52.850;6.896;2023-04-03T03:13:55;2.40;99.90
59855;DHT22;45732;52.850;6.896;2023-04-03T03:16:21;2.40;99.90
59855;DHT22;45732;52.850;6.896;2023-04-03T03:18:47;2.30;99.90
59855;DHT22;45732;52.850;6.896;2023-04-03T03:21:12;2.30;99.90
59855;DHT22;45732;52.850;6.896;2023-04-03T03:23:39;2.30;99.90
59855;DHT22;45732;52.850;6.896;2023-04-03T03:26:08;2.30;99.90
59855;DHT22;45732;52.850;6.896;2023-04-03T03:28:34;2.30;99.90
59855;DHT22;45732;52.850;6.896;2023-04-03T03:31:02;2.30;99.90
59855;DHT22;45732;52.850;6.896;2023-04-03T03:33:28;2.20;99.90
59855;DHT22;45732;52.850;6.896;2023-04-03T03:35:54;2.10;99.90
59855;DHT22;45732;52.850;6.896;2023-04-03T03:38:20;2.10;99.90
59855;DHT22;45732;52.850;6.896;2023-04-03T03:40:50;2.10;99.90
59855;DHT22;45732;52.850;6.896;2023-04-03T03:43:16;2.10;99.90
59855;DHT22;45732;52.850;6.896;2023-04-03T03:45:42;2.10;99.90
59855;DHT22;45732;52.850;6.896;2023-04-03T03:48:08;2.00;99.90
59855;DHT22;45732;52.850;6.896;2023-04-03T03:50:33;2.00;99.90
59855;DHT22;45732;52.850;6.896;2023-04-03T03:53:00;2.00;99.90
59855;DHT22;45732;52.850;6.896;2023-04-03T03:55:26;2.00;99.90
59855;DHT22;45732;52.850;6.896;2023-04-03T03:57:52;2.00;99.90
59855;DHT22;45732;52.850;6.896;2023-04-03T04:00:17;2.00;99.90
59855;DHT22;45732;52.850;6.896;2023-04-03T04:02:43;1.90;99.90
59855;DHT22;45732;52.850;6.896;2023-04-03T04:05:09;1.90;99.90
59855;DHT22;45732;52.850;6.896;2023-04-03T04:07:35;1.90;99.90
59855;DHT22;45732;52.850;6.896;2023-04-03T04:10:01;1.90;99.90
59855;DHT22;45732;52.850;6.896;2023-04-03T04:12:27;1.90;99.90
59855;DHT22;45732;52.850;6.896;2023-04-03T04:14:53;1.80;99.90
59855;DHT22;45732;52.850;6.896;2023-04-03T04:17:18;1.80;99.90
59855;DHT22;45732;52.850;6.896;2023-04-03T04:19:44;1.90;99.90
59855;DHT22;45732;52.850;6.896;2023-04-03T04:22:10;1.90;99.90
59855;DHT22;45732;52.850;6.896;2023-04-03T04:24:35;1.90;99.90
59855;DHT22;45732;52.850;6.896;2023-04-03T04:27:01;1.90;99.90
59855;DHT22;45732;52.850;6.896;2023-04-03T04:29:27;1.80;99.90
59855;DHT22;45732;52.850;6.896;2023-04-03T04:31:52;1.80;99.90
59855;DHT22;45732;52.850;6.896;2023-04-03T04:34:18;1.80;99.90
59855;DHT22;45732;52.850;6.896;2023-04-03T04:36:44;1.80;99.90
59855;DHT22;45732;52.850;6.896;2023-04-03T04:39:09;1.80;99.90
59855;DHT22;45732;52.850;6.896;2023-04-03T04:41:35;1.90;99.90
59855;DHT22;45732;52.850;6.896;2023-04-03T04:44:01;1.80;99.90
59855;DHT22;45732;52.850;6.896;2023-04-03T04:46:27;1.80;99.90
59855;DHT22;45732;52.850;6.896;2023-04-03T04:48:52;1.80;99.90
59855;DHT22;45732;52.850;6.896;2023-04-03T04:51:18;1.80;99.90
59855;DHT22;45732;52.850;6.896;2023-04-03T04:53:44;1.80;99.90
59855;DHT22;45732;52.850;6.896;2023-04-03T04:56:10;1.80;99.90
59855;DHT22;45732;52.850;6.896;2023-04-03T04:58:36;1.80;99.90
59855;DHT22;45732;52.850;6.896;2023-04-03T05:01:09;1.70;99.90
59855;DHT22;45732;52.850;6.896;2023-04-03T05:03:35;1.70;99.90
59855;DHT22;45732;52.850;6.896;2023-04-03T05:06:01;1.70;99.90
59855;DHT22;45732;52.850;6.896;2023-04-03T05:08:27;1.70;99.90
59855;DHT22;45732;52.850;6.896;2023-04-03T05:10:52;1.80;99.90
59855;DHT22;45732;52.850;6.896;2023-04-03T05:13:19;1.80;99.90
59855;DHT22;45732;52.850;6.896;2023-04-03T05:15:45;1.80;99.90
59855;DHT22;45732;52.850;6.896;2023-04-03T05:18:12;1.80;99.90
59855;DHT22;45732;52.850;6.896;2023-04-03T05:20:37;1.80;99.90
59855;DHT22;45732;52.850;6.896;2023-04-03T05:23:03;1.80;99.90
59855;DHT22;45732;52.850;6.896;2023-04-03T05:25:29;1.80;99.90
59855;DHT22;45732;52.850;6.896;2023-04-03T05:27:55;1.80;99.90
59855;DHT22;45732;52.850;6.896;2023-04-03T05:30:21;1.80;99.90
59855;DHT22;45732;52.850;6.896;2023-04-03T05:32:47;1.80;99.90
59855;DHT22;45732;52.850;6.896;2023-04-03T05:35:13;1.80;99.90
59855;DHT22;45732;52.850;6.896;2023-04-03T05:37:39;1.80;99.90
59855;DHT22;45732;52.850;6.896;2023-04-03T05:40:06;1.90;99.90
59855;DHT22;45732;52.850;6.896;2023-04-03T05:42:32;1.80;99.90
59855;DHT22;45732;52.850;6.896;2023-04-03T05:44:58;1.90;99.90
59855;DHT22;45732;52.850;6.896;2023-04-03T05:47:24;1.90;99.90
59855;DHT22;45732;52.850;6.896;2023-04-03T05:49:49;1.90;99.90
59855;DHT22;45732;52.850;6.896;2023-04-03T05:54:44;1.90;99.90
59855;DHT22;45732;52.850;6.896;2023-04-03T05:57:12;2.00;99.90
59855;DHT22;45732;52.850;6.896;2023-04-03T05:59:37;2.00;99.90
59855;DHT22;45732;52.850;6.896;2023-04-03T06:02:03;2.00;99.90
59855;DHT22;45732;52.850;6.896;2023-04-03T06:04:29;2.00;99.90
59855;DHT22;45732;52.850;6.896;2023-04-03T06:06:56;2.10;99.90
59855;DHT22;45732;52.850;6.896;2023-04-03T06:09:25;2.20;99.90
59855;DHT22;45732;52.850;6.896;2023-04-03T06:11:52;2.20;99.90
59855;DHT22;45732;52.850;6.896;2023-04-03T06:14:18;2.30;99.90
59855;DHT22;45732;52.850;6.896;2023-04-03T06:16:44;2.30;99.90
59855;DHT22;45732;52.850;6.896;2023-04-03T06:19:10;2.30;99.90
59855;DHT22;45732;52.850;6.896;2023-04-03T06:21:37;2.40;99.90
59855;DHT22;45732;52.850;6.896;2023-04-03T06:24:03;2.40;99.90
59855;DHT22;45732;52.850;6.896;2023-04-03T06:26:29;2.50;99.90
59855;DHT22;45732;52.850;6.896;2023-04-03T06:28:55;2.50;99.90
59855;DHT22;45732;52.850;6.896;2023-04-03T06:31:21;2.50;99.90
59855;DHT22;45732;52.850;6.896;2023-04-03T06:33:47;2.60;99.90
59855;DHT22;45732;52.850;6.896;2023-04-03T06:36:13;2.60;99.90
59855;DHT22;45732;52.850;6.896;2023-04-03T06:38:39;2.70;99.90
59855;DHT22;45732;52.850;6.896;2023-04-03T06:41:05;2.70;99.90
59855;DHT22;45732;52.850;6.896;2023-04-03T06:43:31;2.70;99.90
59855;DHT22;45732;52.850;6.896;2023-04-03T06:45:57;2.80;99.90
59855;DHT22;45732;52.850;6.896;2023-04-03T06:48:23;2.90;99.90
59855;DHT22;45732;52.850;6.896;2023-04-03T06:50:49;2.90;99.90
59855;DHT22;45732;52.850;6.896;2023-04-03T06:53:15;3.00;99.90
59855;DHT22;45732;52.850;6.896;2023-04-03T06:55:41;3.00;99.90
59855;DHT22;45732;52.850;6.896;2023-04-03T06:58:06;3.10;99.90
59855;DHT22;45732;52.850;6.896;2023-04-03T07:00:32;3.20;99.90
59855;DHT22;45732;52.850;6.896;2023-04-03T07:02:58;3.20;99.90
59855;DHT22;45732;52.850;6.896;2023-04-03T07:05:24;3.20;99.90
59855;DHT22;45732;52.850;6.896;2023-04-03T07:07:50;3.30;99.90
59855;DHT22;45732;52.850;6.896;2023-04-03T07:10:17;3.30;99.90
59855;DHT22;45732;52.850;6.896;2023-04-03T07:12:43;3.40;99.90
59855;DHT22;45732;52.850;6.896;2023-04-03T07:15:09;3.50;99.90
59855;DHT22;45732;52.850;6.896;2023-04-03T07:17:35;3.50;99.90
59855;DHT22;45732;52.850;6.896;2023-04-03T07:20:02;3.50;99.90
59855;DHT22;45732;52.850;6.896;2023-04-03T07:22:28;3.60;99.90
59855;DHT22;45732;52.850;6.896;2023-04-03T07:24:53;3.60;99.90
59855;DHT22;45732;52.850;6.896;2023-04-03T07:27:19;3.70;99.90
59855;DHT22;45732;52.850;6.896;2023-04-03T07:29:45;3.70;99.90
59855;DHT22;45732;52.850;6.896;2023-04-03T07:32:10;3.80;99.90
59855;DHT22;45732;52.850;6.896;2023-04-03T07:34:36;3.80;99.90
59855;DHT22;45732;52.850;6.896;2023-04-03T07:37:02;3.90;99.90
59855;DHT22;45732;52.850;6.896;2023-04-03T07:39:28;3.90;99.90
59855;DHT22;45732;52.850;6.896;2023-04-03T07:41:54;4.00;99.90
59855;DHT22;45732;52.850;6.896;2023-04-03T07:44:23;4.10;99.90
59855;DHT22;45732;52.850;6.896;2023-04-03T07:46:49;4.00;99.90
59855;DHT22;45732;52.850;6.896;2023-04-03T07:49:16;4.10;99.90
59855;DHT22;45732;52.850;6.896;2023-04-03T07:51:44;4.20;99.90
59855;DHT22;45732;52.850;6.896;2023-04-03T07:54:09;4.20;99.90
59855;DHT22;45732;52.850;6.896;2023-04-03T07:56:35;4.20;99.90
59855;DHT22;45732;52.850;6.896;2023-04-03T07:59:01;4.30;99.90
59855;DHT22;45732;52.850;6.896;2023-04-03T08:01:27;4.30;99.90
59855;DHT22;45732;52.850;6.896;2023-04-03T08:03:54;4.40;99.90
59855;DHT22;45732;52.850;6.896;2023-04-03T08:06:19;4.40;99.90
59855;DHT22;45732;52.850;6.896;2023-04-03T08:08:45;4.50;99.90
59855;DHT22;45732;52.850;6.896;2023-04-03T08:11:11;4.60;99.90
59855;DHT22;45732;52.850;6.896;2023-04-03T08:13:37;4.70;99.90
59855;DHT22;45732;52.850;6.896;2023-04-03T08:16:15;4.70;99.90
59855;DHT22;45732;52.850;6.896;2023-04-03T08:18:42;4.80;99.90
59855;DHT22;45732;52.850;6.896;2023-04-03T08:21:10;4.80;99.90
59855;DHT22;45732;52.850;6.896;2023-04-03T08:23:37;5.00;99.90
59855;DHT22;45732;52.850;6.896;2023-04-03T08:26:08;5.10;99.90
59855;DHT22;45732;52.850;6.896;2023-04-03T08:28:33;5.20;99.90
59855;DHT22;45732;52.850;6.896;2023-04-03T08:31:04;5.30;99.90
59855;DHT22;45732;52.850;6.896;2023-04-03T08:33:32;5.30;99.90
59855;DHT22;45732;52.850;6.896;2023-04-03T08:35:57;5.30;99.90
59855;DHT22;45732;52.850;6.896;2023-04-03T08:38:23;5.40;99.90
59855;DHT22;45732;52.850;6.896;2023-04-03T08:41:01;5.50;99.90
59855;DHT22;45732;52.850;6.896;2023-04-03T08:43:38;5.50;99.90
59855;DHT22;45732;52.850;6.896;2023-04-03T08:46:06;5.60;99.90
59855;DHT22;45732;52.850;6.896;2023-04-03T08:48:38;5.70;99.90
59855;DHT22;45732;52.850;6.896;2023-04-03T08:51:15;5.80;99.90
59855;DHT22;45732;52.850;6.896;2023-04-03T08:53:56;5.80;99.90
59855;DHT22;45732;52.850;6.896;2023-04-03T08:56:24;5.80;99.90
59855;DHT22;45732;52.850;6.896;2023-04-03T08:59:00;5.90;99.90
59855;DHT22;45732;52.850;6.896;2023-04-03T09:01:36;5.90;99.90
59855;DHT22;45732;52.850;6.896;2023-04-03T09:04:13;5.90;99.90
59855;DHT22;45732;52.850;6.896;2023-04-03T09:06:39;6.00;99.90
59855;DHT22;45732;52.850;6.896;2023-04-03T09:09:40;6.00;99.90
59855;DHT22;45732;52.850;6.896;2023-04-03T09:12:24;6.00;99.90
59855;DHT22;45732;52.850;6.896;2023-04-03T09:15:18;6.10;99.90
59855;DHT22;45732;52.850;6.896;2023-04-03T09:28:47;6.60;99.90
59855;DHT22;45732;52.850;6.896;2023-04-03T09:31:23;6.70;99.90
59855;DHT22;45732;52.850;6.896;2023-04-03T09:33:53;6.70;99.90
59855;DHT22;45732;52.850;6.896;2023-04-03T09:36:38;6.70;99.90
59855;DHT22;45732;52.850;6.896;2023-04-03T09:39:05;6.70;99.90
59855;DHT22;45732;52.850;6.896;2023-04-03T09:41:31;6.70;99.90
59855;DHT22;45732;52.850;6.896;2023-04-03T09:43:58;6.80;99.90
59855;DHT22;45732;52.850;6.896;2023-04-03T09:46:32;7.00;99.90
59855;DHT22;45732;52.850;6.896;2023-04-03T09:49:01;7.00;99.90
59855;DHT22;45732;52.850;6.896;2023-04-03T09:51:28;7.00;99.90
59855;DHT22;45732;52.850;6.896;2023-04-03T09:53:54;7.00;99.90
59855;DHT22;45732;52.850;6.896;2023-04-03T09:56:22;7.10;99.90
59855;DHT22;45732;52.850;6.896;2023-04-03T09:59:13;7.10;99.90
59855;DHT22;45732;52.850;6.896;2023-04-03T10:01:43;7.30;99.90
59855;DHT22;45732;52.850;6.896;2023-04-03T10:04:21;7.30;99.90
59855;DHT22;45732;52.850;6.896;2023-04-03T10:06:49;7.30;99.90
59855;DHT22;45732;52.850;6.896;2023-04-03T10:09:31;7.40;99.90
59855;DHT22;45732;52.850;6.896;2023-04-03T10:12:09;7.40;99.90
59855;DHT22;45732;52.850;6.896;2023-04-03T10:18:06;7.40;99.90
59855;DHT22;45732;52.850;6.896;2023-04-03T10:25:38;7.60;99.90
59855;DHT22;45732;52.850;6.896;2023-04-03T10:28:23;7.70;99.90
59855;DHT22;45732;52.850;6.896;2023-04-03T10:31:00;7.70;99.90
59855;DHT22;45732;52.850;6.896;2023-04-03T10:33:53;7.70;99.90
59855;DHT22;45732;52.850;6.896;2023-04-03T10:36:42;7.90;99.90
59855;DHT22;45732;52.850;6.896;2023-04-03T10:50:29;8.10;99.90
59855;DHT22;45732;52.850;6.896;2023-04-03T10:53:24;8.10;99.90
59855;DHT22;45732;52.850;6.896;2023-04-03T10:56:18;8.10;99.90
59855;DHT22;45732;52.850;6.896;2023-04-03T10:59:13;8.30;99.90
59855;DHT22;45732;52.850;6.896;2023-04-03T11:01:42;8.50;99.90
59855;DHT22;45732;52.850;6.896;2023-04-03T11:04:11;8.40;99.90
59855;DHT22;45732;52.850;6.896;2023-04-03T11:06:52;8.40;99.90
59855;DHT22;45732;52.850;6.896;2023-04-03T11:09:23;8.40;99.90
59855;DHT22;45732;52.850;6.896;2023-04-03T11:11:55;8.50;99.90
59855;DHT22;45732;52.850;6.896;2023-04-03T11:14:34;8.50;99.90
59855;DHT22;45732;52.850;6.896;2023-04-03T11:17:15;8.50;99.90
59855;DHT22;45732;52.850;6.896;2023-04-03T11:20:04;8.60;99.90
59855;DHT22;45732;52.850;6.896;2023-04-03T11:22:35;8.60;99.90
59855;DHT22;45732;52.850;6.896;2023-04-03T11:27:45;8.70;99.90
59855;DHT22;45732;52.850;6.896;2023-04-03T11:35:49;8.80;99.90
59855;DHT22;45732;52.850;6.896;2023-04-03T11:38:31;8.90;99.90
59855;DHT22;45732;52.850;6.896;2023-04-03T11:41:02;8.90;99.90
59855;DHT22;45732;52.850;6.896;2023-04-03T11:43:32;9.00;99.90
59855;DHT22;45732;52.850;6.896;2023-04-03T11:45:59;9.20;99.90
59855;DHT22;45732;52.850;6.896;2023-04-03T11:53:42;9.10;99.90
59855;DHT22;45732;52.850;6.896;2023-04-03T12:01:54;9.10;99.90
59855;DHT22;45732;52.850;6.896;2023-04-03T12:04:23;9.20;99.90
59855;DHT22;45732;52.850;6.896;2023-04-03T12:06:58;9.10;99.90
59855;DHT22;45732;52.850;6.896;2023-04-03T12:11:54;9.00;99.90
59855;DHT22;45732;52.850;6.896;2023-04-03T12:14:23;9.00;99.90
59855;DHT22;45732;52.850;6.896;2023-04-03T12:16:53;9.10;99.90
59855;DHT22;45732;52.850;6.896;2023-04-03T12:19:36;9.10;99.90
59855;DHT22;45732;52.850;6.896;2023-04-03T12:22:08;9.10;99.90
59855;DHT22;45732;52.850;6.896;2023-04-03T12:24:40;9.10;99.90
59855;DHT22;45732;52.850;6.896;2023-04-03T12:30:25;9.10;99.90
59855;DHT22;45732;52.850;6.896;2023-04-03T12:33:02;9.10;99.90
59855;DHT22;45732;52.850;6.896;2023-04-03T12:41:26;9.10;99.90
59855;DHT22;45732;52.850;6.896;2023-04-03T12:46:21;9.00;99.90
59855;DHT22;45732;52.850;6.896;2023-04-03T12:48:53;9.10;99.90
59855;DHT22;45732;52.850;6.896;2023-04-03T12:51:38;9.10;99.90
59855;DHT22;45732;52.850;6.896;2023-04-03T12:54:22;9.10;99.90
59855;DHT22;45732;52.850;6.896;2023-04-03T12:56:48;9.10;99.90
59855;DHT22;45732;52.850;6.896;2023-04-03T12:59:23;9.10;99.90
59855;DHT22;45732;52.850;6.896;2023-04-03T13:02:02;9.20;99.90
59855;DHT22;45732;52.850;6.896;2023-04-03T13:04:31;9.20;99.90
59855;DHT22;45732;52.850;6.896;2023-04-03T13:07:00;9.20;99.90
59855;DHT22;45732;52.850;6.896;2023-04-03T13:09:30;9.30;99.90
59855;DHT22;45732;52.850;6.896;2023-04-03T13:11:59;9.30;99.90
59855;DHT22;45732;52.850;6.896;2023-04-03T13:14:26;9.30;99.90
59855;DHT22;45732;52.850;6.896;2023-04-03T13:16:59;9.30;99.90
59855;DHT22;45732;52.850;6.896;2023-04-03T13:19:26;9.30;99.90
59855;DHT22;45732;52.850;6.896;2023-04-03T13:24:30;9.40;99.90
59855;DHT22;45732;52.850;6.896;2023-04-03T13:26:58;9.40;99.90
59855;DHT22;45732;52.850;6.896;2023-04-03T13:29:35;9.50;99.90
59855;DHT22;45732;52.850;6.896;2023-04-03T13:32:03;9.50;99.90
59855;DHT22;45732;52.850;6.896;2023-04-03T13:34:38;9.50;99.90
59855;DHT22;45732;52.850;6.896;2023-04-03T13:37:04;9.60;99.90
59855;DHT22;45732;52.850;6.896;2023-04-03T13:39:36;9.60;99.90
59855;DHT22;45732;52.850;6.896;2023-04-03T13:42:27;9.70;99.90
59855;DHT22;45732;52.850;6.896;2023-04-03T13:45:31;9.70;99.90
59855;DHT22;45732;52.850;6.896;2023-04-03T13:48:19;9.70;99.90
59855;DHT22;45732;52.850;6.896;2023-04-03T13:53:23;9.80;99.90
59855;DHT22;45732;52.850;6.896;2023-04-03T13:56:14;9.90;99.90
59855;DHT22;45732;52.850;6.896;2023-04-03T14:01:24;9.90;99.90
59855;DHT22;45732;52.850;6.896;2023-04-03T14:03:55;9.80;99.90
59855;DHT22;45732;52.850;6.896;2023-04-03T14:06:21;9.90;99.90
59855;DHT22;45732;52.850;6.896;2023-04-03T14:08:47;9.80;99.90
59855;DHT22;45732;52.850;6.896;2023-04-03T14:13:45;9.70;99.90
59855;DHT22;45732;52.850;6.896;2023-04-03T14:16:23;9.70;99.90
59855;DHT22;45732;52.850;6.896;2023-04-03T14:18:50;9.70;99.90
59855;DHT22;45732;52.850;6.896;2023-04-03T14:21:18;9.70;99.90
59855;DHT22;45732;52.850;6.896;2023-04-03T14:23:44;9.70;99.90
59855;DHT22;45732;52.850;6.896;2023-04-03T14:26:15;9.70;99.90
59855;DHT22;45732;52.850;6.896;2023-04-03T14:28:43;9.80;99.90
59855;DHT22;45732;52.850;6.896;2023-04-03T14:31:10;9.80;99.90
59855;DHT22;45732;52.850;6.896;2023-04-03T14:33:37;9.80;99.90
59855;DHT22;45732;52.850;6.896;2023-04-03T14:38:38;9.90;99.90
59855;DHT22;45732;52.850;6.896;2023-04-03T14:41:03;9.90;99.90
59855;DHT22;45732;52.850;6.896;2023-04-03T14:43:29;9.90;99.90
59855;DHT22;45732;52.850;6.896;2023-04-03T14:45:55;9.90;99.90
59855;DHT22;45732;52.850;6.896;2023-04-03T14:48:24;10.00;99.90
59855;DHT22;45732;52.850;6.896;2023-04-03T14:50:51;10.10;99.90
59855;DHT22;45732;52.850;6.896;2023-04-03T14:53:18;10.10;99.90
59855;DHT22;45732;52.850;6.896;2023-04-03T14:55:48;10.00;99.90
59855;DHT22;45732;52.850;6.896;2023-04-03T14:58:16;10.10;99.90
59855;DHT22;45732;52.850;6.896;2023-04-03T15:00:43;10.30;99.90
59855;DHT22;45732;52.850;6.896;2023-04-03T15:03:16;10.30;99.90
59855;DHT22;45732;52.850;6.896;2023-04-03T15:05:44;10.40;99.90
59855;DHT22;45732;52.850;6.896;2023-04-03T15:08:22;10.50;99.90
59855;DHT22;45732;52.850;6.896;2023-04-03T15:10:50;10.60;99.90
59855;DHT22;45732;52.850;6.896;2023-04-03T15:13:36;10.70;99.90
59855;DHT22;45732;52.850;6.896;2023-04-03T15:16:25;10.70;99.90
59855;DHT22;45732;52.850;6.896;2023-04-03T15:18:52;10.80;99.90
59855;DHT22;45732;52.850;6.896;2023-04-03T15:21:17;10.90;99.90
59855;DHT22;45732;52.850;6.896;2023-04-03T15:23:43;11.10;99.90
59855;DHT22;45732;52.850;6.896;2023-04-03T15:26:09;11.20;99.90
59855;DHT22;45732;52.850;6.896;2023-04-03T15:28:39;11.40;99.90
59855;DHT22;45732;52.850;6.896;2023-04-03T15:31:06;11.60;99.70
59855;DHT22;45732;52.850;6.896;2023-04-03T15:33:33;11.90;99.80
59855;DHT22;45732;52.850;6.896;2023-04-03T15:35:59;12.00;99.60
59855;DHT22;45732;52.850;6.896;2023-04-03T15:38:25;12.20;99.40
59855;DHT22;45732;52.850;6.896;2023-04-03T15:40:51;12.10;99.10
59855;DHT22;45732;52.850;6.896;2023-04-03T15:43:17;12.30;99.30
59855;DHT22;45732;52.850;6.896;2023-04-03T15:45:43;12.40;98.60
59855;DHT22;45732;52.850;6.896;2023-04-03T15:48:10;12.50;97.30
59855;DHT22;45732;52.850;6.896;2023-04-03T15:50:36;12.60;96.90
59855;DHT22;45732;52.850;6.896;2023-04-03T15:53:02;12.90;97.00
59855;DHT22;45732;52.850;6.896;2023-04-03T15:55:30;13.30;96.70
59855;DHT22;45732;52.850;6.896;2023-04-03T15:57:56;13.60;95.90
59855;DHT22;45732;52.850;6.896;2023-04-03T16:00:23;13.90;95.50
59855;DHT22;45732;52.850;6.896;2023-04-03T16:02:53;14.10;94.30
59855;DHT22;45732;52.850;6.896;2023-04-03T16:05:20;14.10;93.30
59855;DHT22;45732;52.850;6.896;2023-04-03T16:07:47;14.30;93.20
59855;DHT22;45732;52.850;6.896;2023-04-03T16:10:14;14.50;93.40
59855;DHT22;45732;52.850;6.896;2023-04-03T16:12:41;14.70;92.60
59855;DHT22;45732;52.850;6.896;2023-04-03T16:15:07;14.80;92.70
59855;DHT22;45732;52.850;6.896;2023-04-03T16:17:34;14.90;91.60
59855;DHT22;45732;52.850;6.896;2023-04-03T16:20:07;14.70;91.30
59855;DHT22;45732;52.850;6.896;2023-04-03T16:22:34;14.50;89.90
59855;DHT22;45732;52.850;6.896;2023-04-03T16:25:01;14.40;90.20
59855;DHT22;45732;52.850;6.896;2023-04-03T16:27:26;14.40;90.00
59855;DHT22;45732;52.850;6.896;2023-04-03T16:29:57;14.10;90.70
59855;DHT22;45732;52.850;6.896;2023-04-03T16:32:23;14.20;91.00
59855;DHT22;45732;52.850;6.896;2023-04-03T16:34:50;14.10;90.90
59855;DHT22;45732;52.850;6.896;2023-04-03T16:37:16;13.90;90.50
59855;DHT22;45732;52.850;6.896;2023-04-03T16:39:43;14.10;90.50
59855;DHT22;45732;52.850;6.896;2023-04-03T16:42:09;14.30;90.10
59855;DHT22;45732;52.850;6.896;2023-04-03T16:44:46;14.40;90.20
59855;DHT22;45732;52.850;6.896;2023-04-03T16:47:12;14.40;89.40
59855;DHT22;45732;52.850;6.896;2023-04-03T16:49:39;14.40;89.40
59855;DHT22;45732;52.850;6.896;2023-04-03T16:52:05;14.30;89.50
59855;DHT22;45732;52.850;6.896;2023-04-03T16:54:32;14.20;89.90
59855;DHT22;45732;52.850;6.896;2023-04-03T16:56:58;14.10;90.20
59855;DHT22;45732;52.850;6.896;2023-04-03T16:59:23;13.40;90.60
59855;DHT22;45732;52.850;6.896;2023-04-03T17:01:49;13.00;91.30
59855;DHT22;45732;52.850;6.896;2023-04-03T17:04:15;12.90;91.30
59855;DHT22;45732;52.850;6.896;2023-04-03T17:06:41;13.00;91.60
59855;DHT22;45732;52.850;6.896;2023-04-03T17:09:08;13.40;90.90
59855;DHT22;45732;52.850;6.896;2023-04-03T17:11:35;13.90;90.50
59855;DHT22;45732;52.850;6.896;2023-04-03T17:14:01;14.30;90.00
59855;DHT22;45732;52.850;6.896;2023-04-03T17:16:27;14.40;89.50
59855;DHT22;45732;52.850;6.896;2023-04-03T17:18:53;14.40;90.20